createdAt,value
2017-03-26T04:00:31.856Z,99.99
2017-03-26T04:01:32.408Z,99.99
2017-03-26T04:02:32.909Z,99.99
2017-03-26T04:03:32.962Z,99.99
2017-03-26T04:04:32.989Z,99.99
2017-03-26T04:05:32.982Z,99.99
2017-03-26T04:06:33.526Z,99.99
2017-03-26T04:07:33.569Z,99.99
2017-03-26T04:08:33.574Z,99.99
2017-03-26T04:09:33.642Z,99.99
2017-03-26T04:10:33.595Z,99.99
2017-03-26T04:11:34.145Z,99.99
2017-03-26T04:12:34.143Z,99.99
2017-03-26T04:13:34.165Z,99.99
2017-03-26T04:14:34.190Z,99.99
2017-03-26T04:15:34.215Z,99.99
2017-03-26T04:16:34.237Z,99.99
2017-03-26T04:17:34.293Z,99.99
2017-03-26T04:18:34.290Z,99.99
2017-03-26T04:19:34.345Z,99.99
2017-03-26T04:20:34.332Z,99.99
2017-03-26T04:21:34.362Z,99.99
2017-03-26T04:22:34.869Z,99.99
2017-03-26T04:23:34.886Z,99.99
2017-03-26T04:24:35.394Z,99.99
2017-03-26T04:25:35.413Z,99.99
2017-03-26T04:26:35.958Z,99.99
2017-03-26T04:27:35.982Z,99.99
2017-03-26T04:28:36.004Z,99.99
2017-03-26T04:29:36.557Z,99.99
2017-03-26T04:30:36.549Z,99.99
2017-03-26T04:31:36.566Z,99.99
2017-03-26T04:32:37.124Z,99.99
2017-03-26T04:33:37.170Z,99.99
2017-03-26T04:34:37.650Z,99.99
2017-03-26T04:35:37.675Z,99.99
2017-03-26T04:36:38.166Z,99.99
2017-03-26T04:37:38.222Z,99.99
2017-03-26T04:38:38.220Z,99.99
2017-03-26T04:39:38.249Z,99.99
2017-03-26T04:40:38.262Z,99.99
2017-03-26T04:41:38.782Z,99.99
2017-03-26T04:42:38.789Z,99.99
2017-03-26T04:43:38.822Z,99.99
2017-03-26T04:44:38.848Z,99.99
2017-03-26T04:45:38.872Z,99.99
2017-03-26T04:46:38.905Z,99.99
2017-03-26T04:47:38.923Z,99.99
2017-03-26T04:48:39.509Z,99.99
2017-03-26T04:49:39.495Z,99.99
2017-03-26T04:50:39.524Z,99.99
2017-03-26T04:51:40.061Z,99.99
2017-03-26T04:52:40.084Z,99.99
2017-03-26T04:53:40.585Z,99.99
2017-03-26T04:54:40.603Z,99.99
2017-03-26T04:55:40.632Z,99.99
2017-03-26T04:56:41.163Z,99.99
2017-03-26T04:57:41.195Z,99.99
2017-03-26T04:58:41.718Z,99.99
2017-03-26T04:59:41.768Z,99.99
2017-03-26T05:00:41.785Z,99.99
2017-03-26T05:01:41.790Z,99.99
2017-03-26T05:02:41.811Z,99.99
2017-03-26T05:03:42.314Z,99.99
2017-03-26T05:04:42.877Z,99.99
2017-03-26T05:05:42.860Z,99.99
2017-03-26T05:06:42.885Z,99.99
2017-03-26T05:07:42.942Z,99.99
2017-03-26T05:08:42.971Z,99.99
2017-03-26T05:09:42.962Z,99.99
2017-03-26T05:10:42.991Z,99.99
2017-03-26T05:11:43.506Z,99.99
2017-03-26T05:12:43.524Z,99.99
2017-03-26T05:13:43.579Z,99.99
2017-03-26T05:14:43.573Z,99.99
2017-03-26T05:15:44.118Z,99.99
2017-03-26T05:16:44.108Z,99.99
2017-03-26T05:17:44.132Z,99.99
2017-03-26T05:18:44.187Z,99.99
2017-03-26T05:19:44.172Z,99.99
2017-03-26T05:20:44.197Z,99.99
2017-03-26T05:21:44.260Z,99.99
2017-03-26T05:22:44.285Z,99.99
2017-03-26T05:23:44.274Z,99.99
2017-03-26T05:24:44.797Z,99.99
2017-03-26T05:25:44.830Z,99.99
2017-03-26T05:26:45.371Z,99.99
2017-03-26T05:27:45.902Z,99.99
2017-03-26T05:28:46.417Z,99.99
2017-03-26T05:29:46.434Z,99.99
2017-03-26T05:30:46.917Z,99.99
2017-03-26T05:31:46.940Z,99.99
2017-03-26T05:32:47.476Z,99.99
2017-03-26T05:33:47.496Z,99.99
2017-03-26T05:34:48.008Z,99.99
2017-03-26T05:35:48.052Z,99.99
2017-03-26T05:36:48.051Z,99.99
2017-03-26T05:37:48.068Z,99.99
2017-03-26T05:38:48.101Z,99.99
2017-03-26T05:39:48.124Z,99.99
2017-03-26T05:40:48.179Z,99.99
2017-03-26T05:41:48.175Z,99.99
2017-03-26T05:42:48.201Z,99.99
2017-03-26T05:43:48.752Z,99.99
2017-03-26T05:44:48.793Z,99.99
2017-03-26T05:45:48.786Z,99.99
2017-03-26T05:46:49.336Z,99.99
2017-03-26T05:47:49.361Z,99.99
2017-03-26T05:48:49.879Z,99.99
2017-03-26T05:49:49.888Z,99.99
2017-03-26T05:50:49.920Z,99.99
2017-03-26T05:51:49.949Z,99.99
2017-03-26T05:52:50.490Z,99.99
2017-03-26T05:53:50.484Z,99.99
2017-03-26T05:54:51.551Z,99.99
2017-03-26T05:55:51.547Z,99.99
2017-03-26T05:56:51.578Z,99.99
2017-03-26T05:57:51.602Z,99.99
2017-03-26T05:58:51.618Z,99.99
2017-03-26T05:59:51.650Z,99.99
2017-03-26T06:00:51.679Z,99.99
2017-03-26T06:01:51.684Z,99.99
2017-03-26T06:02:51.721Z,99.99
2017-03-26T06:03:51.781Z,99.99
2017-03-26T06:04:51.780Z,99.99
2017-03-26T06:05:51.791Z,99.99
2017-03-26T06:06:51.824Z,99.99
2017-03-26T06:07:51.885Z,99.99
2017-03-26T06:08:51.886Z,99.99
2017-03-26T06:09:51.896Z,99.99
2017-03-26T06:10:51.929Z,99.99
2017-03-26T06:11:51.980Z,99.99
2017-03-26T06:12:52.010Z,99.99
2017-03-26T06:13:51.995Z,99.99
2017-03-26T06:14:52.024Z,99.99
2017-03-26T06:15:52.055Z,99.99
2017-03-26T06:16:52.109Z,99.99
2017-03-26T06:17:52.109Z,99.99
2017-03-26T06:18:52.142Z,99.99
2017-03-26T06:19:52.159Z,99.99
2017-03-26T06:20:52.209Z,99.99
2017-03-26T06:21:52.263Z,99.99
2017-03-26T06:22:52.242Z,99.99
2017-03-26T06:23:52.329Z,99.99
2017-03-26T06:24:52.324Z,99.99
2017-03-26T06:25:52.313Z,99.99
2017-03-26T06:26:52.366Z,99.99
2017-03-26T06:27:52.369Z,99.99
2017-03-26T06:28:52.460Z,99.99
2017-03-26T06:29:52.461Z,99.99
2017-03-26T06:30:52.451Z,99.99
2017-03-26T06:31:52.481Z,99.99
2017-03-26T06:32:52.536Z,99.99
2017-03-26T06:33:52.522Z,99.99
2017-03-26T06:34:52.594Z,99.99
2017-03-26T06:35:52.587Z,99.99
2017-03-26T06:36:52.644Z,99.99
2017-03-26T06:37:52.696Z,98.97
2017-03-26T06:38:52.710Z,95.12
2017-03-26T06:39:52.686Z,90.66
2017-03-26T06:40:52.731Z,87.18
2017-03-26T06:41:52.787Z,84.17
2017-03-26T06:42:52.779Z,82.31
2017-03-26T06:43:52.845Z,80.39
2017-03-26T06:44:52.840Z,77.95
2017-03-26T06:45:52.894Z,75.89
2017-03-26T06:46:52.906Z,75.03
2017-03-26T06:47:52.988Z,74.02
2017-03-26T06:48:52.978Z,71.92
2017-03-26T06:49:52.977Z,72.14
2017-03-26T06:50:53.016Z,71.19
2017-03-26T06:51:53.073Z,70.56
2017-03-26T06:52:53.103Z,69.64
2017-03-26T06:53:53.101Z,67.94
2017-03-26T06:54:53.189Z,66.7
2017-03-26T06:55:53.190Z,66.35
2017-03-26T06:56:53.181Z,65.11
2017-03-26T06:57:53.253Z,63.99
2017-03-26T06:58:53.248Z,63.67
2017-03-26T06:59:53.278Z,63.51
2017-03-26T07:00:53.346Z,63.13
2017-03-26T07:01:53.346Z,62.96
2017-03-26T07:02:53.429Z,62.52
2017-03-26T07:03:53.417Z,61.56
2017-03-26T07:04:53.446Z,60.44
2017-03-26T07:05:53.501Z,59.12
2017-03-26T07:06:53.510Z,58.58
2017-03-26T07:07:53.536Z,58
2017-03-26T07:08:53.630Z,57.36
2017-03-26T07:09:53.611Z,56.68
2017-03-26T07:10:53.661Z,56.43
2017-03-26T07:11:53.670Z,55.76
2017-03-26T07:12:53.687Z,54.6
2017-03-26T07:13:53.760Z,54.6
2017-03-26T07:14:53.796Z,53.83
2017-03-26T07:15:53.827Z,53.92
2017-03-26T07:16:53.837Z,54.22
2017-03-26T07:17:53.897Z,54.6
2017-03-26T07:18:53.886Z,53.96
2017-03-26T07:19:53.925Z,53.09
2017-03-26T07:20:53.970Z,52.61
2017-03-26T07:21:54.038Z,52.87
2017-03-26T07:22:54.091Z,53.92
2017-03-26T07:23:54.069Z,54.57
2017-03-26T07:24:54.124Z,54.02
2017-03-26T07:25:54.187Z,53.25
2017-03-26T07:26:54.197Z,52.87
2017-03-26T07:27:54.202Z,53.38
2017-03-26T07:28:54.244Z,53.09
2017-03-26T07:29:54.306Z,53.06
2017-03-26T07:30:54.313Z,53.9
2017-03-26T07:31:54.373Z,54.93
2017-03-26T07:32:54.384Z,55.22
2017-03-26T07:33:54.408Z,56.05
2017-03-26T07:34:54.445Z,56.34
2017-03-26T07:35:54.511Z,55.57
2017-03-26T07:36:54.500Z,54.83
2017-03-26T07:37:54.575Z,53.8
2017-03-26T07:38:54.618Z,53.45
2017-03-26T07:39:54.649Z,52.1
2017-03-26T07:40:54.632Z,52.48
2017-03-26T07:41:54.717Z,53.06
2017-03-26T07:42:54.752Z,52.89
2017-03-26T07:43:54.793Z,51.86
2017-03-26T07:44:54.793Z,50.83
2017-03-26T07:45:54.829Z,50.45
2017-03-26T07:46:54.889Z,50.81
2017-03-26T07:47:54.893Z,50.9
2017-03-26T07:48:54.953Z,50.93
2017-03-26T07:49:55.006Z,50.51
2017-03-26T07:50:54.996Z,50.99
2017-03-26T07:51:55.075Z,51.26
2017-03-26T07:52:55.141Z,50.9
2017-03-26T07:53:55.151Z,50.9
2017-03-26T07:54:55.147Z,49.96
2017-03-26T07:55:55.216Z,48.74
2017-03-26T07:56:55.255Z,48.86
2017-03-26T07:57:55.317Z,48.4
2017-03-26T07:58:55.302Z,47.17
2017-03-26T07:59:55.329Z,46.03
2017-03-26T08:00:55.388Z,46.06
2017-03-26T08:01:55.409Z,45.31
2017-03-26T08:02:55.452Z,45.21
2017-03-26T08:03:55.549Z,45.04
2017-03-26T08:04:55.545Z,45.16
2017-03-26T08:05:55.588Z,44.77
2017-03-26T08:06:55.630Z,43.95
2017-03-26T08:07:55.635Z,42.41
2017-03-26T08:08:55.711Z,41.86
2017-03-26T08:09:55.732Z,41.3
2017-03-26T08:10:56.234Z,41.61
2017-03-26T08:11:55.816Z,41.43
2017-03-26T08:12:55.830Z,40.66
2017-03-26T08:13:55.871Z,39.22
2017-03-26T08:14:55.904Z,39.69
2017-03-26T08:15:55.947Z,40.26
2017-03-26T08:16:56.016Z,40.56
2017-03-26T08:17:56.030Z,39.78
2017-03-26T08:18:56.072Z,38.44
2017-03-26T08:19:56.108Z,38.44
2017-03-26T08:20:56.172Z,38.73
2017-03-26T08:21:56.252Z,39.24
2017-03-26T08:22:56.230Z,37.7
2017-03-26T08:23:56.257Z,37.32
2017-03-26T08:24:56.307Z,37.6
2017-03-26T08:25:56.393Z,37.9
2017-03-26T08:26:56.385Z,38.4
2017-03-26T08:27:56.440Z,37.84
2017-03-26T08:28:56.505Z,37.45
2017-03-26T08:29:56.511Z,36.69
2017-03-26T08:30:56.556Z,36.88
2017-03-26T08:31:56.628Z,36.49
2017-03-26T08:32:56.659Z,36.51
2017-03-26T08:33:56.682Z,36.41
2017-03-26T08:34:56.707Z,35.73
2017-03-26T08:35:56.754Z,35.85
2017-03-26T08:36:56.808Z,35.46
2017-03-26T08:37:56.883Z,34.21
2017-03-26T08:38:56.911Z,34.61
2017-03-26T08:39:56.926Z,35
2017-03-26T08:40:56.986Z,34.59
2017-03-26T08:41:57.017Z,34.69
2017-03-26T08:42:57.053Z,34.61
2017-03-26T08:43:57.133Z,34.32
2017-03-26T08:44:57.167Z,34.03
2017-03-26T08:45:57.188Z,33.62
2017-03-26T08:46:57.220Z,34.19
2017-03-26T08:47:57.269Z,34.48
2017-03-26T08:48:57.345Z,34.99
2017-03-26T08:49:57.355Z,34.4
2017-03-26T08:50:57.426Z,33.54
2017-03-26T08:51:57.478Z,32.96
2017-03-26T08:52:57.483Z,33.54
2017-03-26T08:53:57.512Z,33.14
2017-03-26T08:54:57.570Z,33.82
2017-03-26T08:55:57.647Z,34.11
2017-03-26T08:56:57.656Z,33.82
2017-03-26T08:57:57.734Z,33.33
2017-03-26T08:58:57.747Z,32.94
2017-03-26T08:59:57.808Z,33.53
2017-03-26T09:00:57.813Z,33.73
2017-03-26T09:01:57.904Z,33.26
2017-03-26T09:02:57.942Z,33.09
2017-03-26T09:03:58.015Z,33.2
2017-03-26T09:04:58.000Z,31.65
2017-03-26T09:05:58.062Z,31.64
2017-03-26T09:06:58.116Z,32.58
2017-03-26T09:07:58.122Z,33.34
2017-03-26T09:08:58.235Z,33.25
2017-03-26T09:09:58.225Z,33.73
2017-03-26T09:10:58.259Z,33.53
2017-03-26T09:11:58.325Z,32.47
2017-03-26T09:12:58.381Z,32.47
2017-03-26T09:13:58.393Z,33.15
2017-03-26T09:14:58.434Z,31.9
2017-03-26T09:15:58.484Z,32.09
2017-03-26T09:16:58.524Z,31.8
2017-03-26T09:17:58.572Z,32.29
2017-03-26T09:18:58.617Z,32.09
2017-03-26T09:19:58.672Z,32.48
2017-03-26T09:20:58.735Z,32.42
2017-03-26T09:21:58.751Z,31.75
2017-03-26T09:22:58.794Z,30.87
2017-03-26T09:23:58.838Z,31.48
2017-03-26T09:24:58.918Z,30.69
2017-03-26T09:25:58.924Z,31.08
2017-03-26T09:26:58.970Z,31.38
2017-03-26T09:27:59.052Z,30.88
2017-03-26T09:28:59.089Z,30.4
2017-03-26T09:29:59.133Z,31.35
2017-03-26T09:30:59.174Z,31.72
2017-03-26T09:31:59.230Z,31.31
2017-03-26T09:32:59.243Z,30.84
2017-03-26T09:33:59.288Z,30.38
2017-03-26T09:34:59.322Z,30.59
2017-03-26T09:35:59.390Z,30.4
2017-03-26T09:36:59.426Z,30.51
2017-03-26T09:37:59.480Z,29.27
2017-03-26T09:38:59.549Z,29.07
2017-03-26T09:39:59.581Z,28.49
2017-03-26T09:40:59.634Z,29.74
2017-03-26T09:41:59.643Z,30.33
2017-03-26T09:42:59.702Z,29.74
2017-03-26T09:43:59.735Z,29.14
2017-03-26T09:44:59.796Z,29.52
2017-03-26T09:45:59.835Z,28.93
2017-03-26T09:46:59.924Z,29.42
2017-03-26T09:47:59.929Z,29.81
2017-03-26T09:48:59.994Z,29.81
2017-03-26T09:50:00.045Z,30.1
2017-03-26T09:51:00.072Z,29.5
2017-03-26T09:52:00.120Z,30.19
2017-03-26T09:53:00.155Z,30.48
2017-03-26T09:54:00.201Z,30.79
2017-03-26T09:55:00.262Z,30.49
2017-03-26T09:56:00.294Z,30.1
2017-03-26T09:57:00.335Z,30.49
2017-03-26T09:58:00.391Z,30.2
2017-03-26T09:59:00.459Z,30.4
2017-03-26T10:00:00.528Z,30.8
2017-03-26T10:01:00.517Z,29.64
2017-03-26T10:02:00.555Z,29.85
2017-03-26T10:03:00.605Z,29.58
2017-03-26T10:04:00.682Z,29.28
2017-03-26T10:05:00.694Z,28.89
2017-03-26T10:06:00.771Z,28.11
2017-03-26T10:07:01.255Z,28.89
2017-03-26T10:08:00.857Z,28.01
2017-03-26T10:09:00.895Z,27.5
2017-03-26T10:10:00.967Z,28.96
2017-03-26T10:11:00.959Z,29.14
2017-03-26T10:12:01.012Z,28.25
2017-03-26T10:13:01.055Z,29.32
2017-03-26T10:14:01.108Z,29.79
2017-03-26T10:15:01.172Z,29.85
2017-03-26T10:16:01.205Z,29.95
2017-03-26T10:17:01.233Z,30.03
2017-03-26T10:18:01.253Z,28.86
2017-03-26T10:19:01.308Z,30.02
2017-03-26T10:20:01.356Z,30.58
2017-03-26T10:21:01.394Z,31.09
2017-03-26T10:22:01.472Z,31.4
2017-03-26T10:23:01.506Z,29.85
2017-03-26T10:24:01.531Z,29.38
2017-03-26T10:25:01.556Z,29.57
2017-03-26T10:26:01.645Z,29.47
2017-03-26T10:27:01.699Z,28.79
2017-03-26T10:28:01.695Z,29.46
2017-03-26T10:29:01.758Z,30
2017-03-26T10:30:01.774Z,30.46
2017-03-26T10:31:01.849Z,31.01
2017-03-26T10:32:01.867Z,31.58
2017-03-26T10:33:01.900Z,31.65
2017-03-26T10:34:01.980Z,32.04
2017-03-26T10:35:01.964Z,32.23
2017-03-26T10:36:02.016Z,32.42
2017-03-26T10:37:02.087Z,31.68
2017-03-26T10:38:02.130Z,31.6
2017-03-26T10:39:02.145Z,31.03
2017-03-26T10:40:02.209Z,30.85
2017-03-26T10:41:02.219Z,29.99
2017-03-26T10:42:02.283Z,30.41
2017-03-26T10:43:02.316Z,29.53
2017-03-26T10:44:02.327Z,28.86
2017-03-26T10:45:02.403Z,29.69
2017-03-26T10:46:02.439Z,30.33
2017-03-26T10:47:02.481Z,31.37
2017-03-26T10:48:02.494Z,31.65
2017-03-26T10:49:02.527Z,31.68
2017-03-26T10:50:02.593Z,31.13
2017-03-26T10:51:02.632Z,30.47
2017-03-26T10:52:02.643Z,29.52
2017-03-26T10:53:02.689Z,28.36
2017-03-26T10:54:02.732Z,28.74
2017-03-26T10:55:02.814Z,29.02
2017-03-26T10:56:02.821Z,29.46
2017-03-26T10:57:02.828Z,30.18
2017-03-26T10:58:02.873Z,31.02
2017-03-26T10:59:02.910Z,31.57
2017-03-26T11:00:02.950Z,32.15
2017-03-26T11:01:02.993Z,32.24
2017-03-26T11:02:03.074Z,32.17
2017-03-26T11:03:03.083Z,31.99
2017-03-26T11:04:03.123Z,31.6
2017-03-26T11:05:03.127Z,32.07
2017-03-26T11:06:03.167Z,32.96
2017-03-26T11:07:03.203Z,33.36
2017-03-26T11:08:03.254Z,32.29
2017-03-26T11:09:03.267Z,31.92
2017-03-26T11:10:03.332Z,31.27
2017-03-26T11:11:03.363Z,31.5
2017-03-26T11:12:03.385Z,30.26
2017-03-26T11:13:03.453Z,30.08
2017-03-26T11:14:03.498Z,29.61
2017-03-26T11:15:03.500Z,29.33
2017-03-26T11:16:03.577Z,29.33
2017-03-26T11:17:03.582Z,28.07
2017-03-26T11:18:03.627Z,28.75
2017-03-26T11:19:03.682Z,29.63
2017-03-26T11:20:03.728Z,28.38
2017-03-26T11:21:03.741Z,28.86
2017-03-26T11:22:03.767Z,29.44
2017-03-26T11:23:03.801Z,28.08
2017-03-26T11:24:03.819Z,28.19
2017-03-26T11:25:03.888Z,27.9
2017-03-26T11:26:03.897Z,27.61
2017-03-26T11:27:03.951Z,26.63
2017-03-26T11:28:04.020Z,27.2
2017-03-26T11:29:04.005Z,27.37
2017-03-26T11:30:04.071Z,27.16
2017-03-26T11:31:04.069Z,28.03
2017-03-26T11:32:04.121Z,29.47
2017-03-26T11:33:04.183Z,29.57
2017-03-26T11:34:04.181Z,29.19
2017-03-26T11:35:04.237Z,29.11
2017-03-26T11:36:04.324Z,28.63
2017-03-26T11:37:04.290Z,29.71
2017-03-26T11:38:04.332Z,29.6
2017-03-26T11:39:04.381Z,29.66
2017-03-26T11:40:04.489Z,30.14
2017-03-26T11:41:04.471Z,30.41
2017-03-26T11:42:04.493Z,30.43
2017-03-26T11:43:04.509Z,30.33
2017-03-26T11:44:04.537Z,30.35
2017-03-26T11:45:04.569Z,30.72
2017-03-26T11:46:04.637Z,31
2017-03-26T11:47:04.634Z,31.08
2017-03-26T11:48:04.695Z,31.65
2017-03-26T11:49:04.708Z,31.65
2017-03-26T11:50:04.787Z,32.21
2017-03-26T11:51:04.785Z,32.29
2017-03-26T11:52:04.868Z,32.47
2017-03-26T11:53:04.897Z,31.49
2017-03-26T11:54:04.879Z,32.52
2017-03-26T11:55:04.956Z,34.23
2017-03-26T11:56:04.963Z,35.08
2017-03-26T11:57:05.041Z,34.87
2017-03-26T11:58:05.037Z,35.22
2017-03-26T11:59:05.090Z,35.96
2017-03-26T12:00:05.132Z,37.83
2017-03-26T12:01:05.140Z,40.37
2017-03-26T12:02:05.205Z,42.06
2017-03-26T12:03:05.207Z,44.03
2017-03-26T12:04:05.273Z,45.74
2017-03-26T12:05:05.272Z,48.18
2017-03-26T12:06:05.338Z,49.81
2017-03-26T12:07:05.336Z,50.93
2017-03-26T12:08:05.380Z,51.2
2017-03-26T12:09:05.418Z,52.15
2017-03-26T12:10:05.447Z,52.7
2017-03-26T12:11:05.513Z,50.98
2017-03-26T12:12:05.519Z,51.75
2017-03-26T12:13:05.584Z,51.93
2017-03-26T12:14:05.585Z,50.57
2017-03-26T12:15:05.648Z,51.43
2017-03-26T12:16:05.655Z,52.01
2017-03-26T12:17:05.689Z,52.01
2017-03-26T12:18:05.722Z,52.96
2017-03-26T12:19:05.788Z,52.67
2017-03-26T12:20:05.780Z,52.77
2017-03-26T12:21:05.881Z,53.32
2017-03-26T12:22:05.893Z,53.7
2017-03-26T12:23:05.887Z,54.37
2017-03-26T12:24:05.962Z,55.04
2017-03-26T12:25:05.965Z,55.54
2017-03-26T12:26:06.002Z,55.45
2017-03-26T12:27:06.024Z,55.54
2017-03-26T12:28:06.103Z,55.13
2017-03-26T12:29:06.204Z,54.39
2017-03-26T12:30:06.239Z,52.01
2017-03-26T12:31:06.186Z,51.53
2017-03-26T12:32:06.210Z,52.2
2017-03-26T12:33:06.243Z,51.7
2017-03-26T12:34:06.331Z,51.98
2017-03-26T12:35:06.309Z,52.26
2017-03-26T12:36:06.337Z,52.08
2017-03-26T12:37:06.378Z,51.6
2017-03-26T12:38:06.409Z,51.21
2017-03-26T12:39:06.447Z,51.21
2017-03-26T12:40:06.493Z,51.03
2017-03-26T12:41:06.535Z,51.79
2017-03-26T12:42:06.534Z,52.08
2017-03-26T12:43:06.584Z,50.64
2017-03-26T12:44:06.616Z,49.3
2017-03-26T12:45:06.690Z,49.02
2017-03-26T12:46:06.684Z,49.21
2017-03-26T12:47:06.743Z,49.78
2017-03-26T12:48:06.784Z,50.33
2017-03-26T12:49:06.844Z,50.71
2017-03-26T12:50:06.845Z,51.12
2017-03-26T12:51:06.845Z,51.31
2017-03-26T12:52:06.888Z,50.26
2017-03-26T12:53:06.914Z,50.07
2017-03-26T12:54:06.958Z,49.98
2017-03-26T12:55:06.978Z,50.16
2017-03-26T12:56:07.047Z,49.78
2017-03-26T12:57:07.048Z,50.35
2017-03-26T12:58:07.104Z,51.12
2017-03-26T12:59:07.115Z,50.45
2017-03-26T13:00:07.189Z,50.62
2017-03-26T13:01:07.182Z,51.38
2017-03-26T13:02:07.229Z,51
2017-03-26T13:03:07.251Z,50.14
2017-03-26T13:04:07.306Z,48.33
2017-03-26T13:05:07.315Z,47.37
2017-03-26T13:06:07.378Z,45.46
2017-03-26T13:07:07.388Z,45.65
2017-03-26T13:08:07.421Z,45.84
2017-03-26T13:09:07.460Z,46.51
2017-03-26T13:10:07.843Z,47.27
2017-03-26T13:11:07.542Z,47.75
2017-03-26T13:12:07.563Z,47.94
2017-03-26T13:13:07.597Z,47.85
2017-03-26T13:14:07.612Z,47.94
2017-03-26T13:15:07.677Z,47.85
2017-03-26T13:16:07.678Z,48.04
2017-03-26T13:17:07.757Z,49.28
2017-03-26T13:18:07.761Z,49.95
2017-03-26T13:19:07.786Z,50.14
2017-03-26T13:20:07.850Z,48.61
2017-03-26T13:21:07.864Z,47.47
2017-03-26T13:22:07.885Z,45.37
2017-03-26T13:23:08.003Z,45.27
2017-03-26T13:24:07.963Z,45.94
2017-03-26T13:25:07.985Z,44.98
2017-03-26T13:26:08.015Z,44.58
2017-03-26T13:27:08.069Z,45.53
2017-03-26T13:28:08.087Z,46.51
2017-03-26T13:29:08.124Z,47.37
2017-03-26T13:30:08.197Z,46.61
2017-03-26T13:31:08.180Z,47.08
2017-03-26T13:32:08.232Z,48.13
2017-03-26T13:33:08.284Z,49.35
2017-03-26T13:34:08.290Z,49.64
2017-03-26T13:35:08.316Z,48.39
2017-03-26T13:36:08.388Z,49.07
2017-03-26T13:37:08.385Z,49.16
2017-03-26T13:38:08.859Z,48.97
2017-03-26T13:39:08.494Z,48.88
2017-03-26T13:40:08.489Z,49.16
2017-03-26T13:41:08.514Z,49.07
2017-03-26T13:42:08.597Z,49.35
2017-03-26T13:43:08.582Z,50.02
2017-03-26T13:44:08.635Z,50.69
2017-03-26T13:45:08.700Z,50.59
2017-03-26T13:46:08.681Z,50.59
2017-03-26T13:47:08.758Z,50.59
2017-03-26T13:48:08.781Z,50.31
2017-03-26T13:49:08.797Z,49.54
2017-03-26T13:50:08.827Z,48.39
2017-03-26T13:51:08.893Z,48.88
2017-03-26T13:52:08.883Z,49.26
2017-03-26T13:53:08.957Z,49.93
2017-03-26T13:54:08.989Z,50.4
2017-03-26T13:55:09.000Z,50.78
2017-03-26T13:56:09.059Z,50.98
2017-03-26T13:57:09.096Z,50.12
2017-03-26T13:58:09.094Z,51.45
2017-03-26T13:59:09.160Z,50.78
2017-03-26T14:00:09.170Z,50.59
2017-03-26T14:01:09.229Z,50.31
2017-03-26T14:02:09.286Z,49.73
2017-03-26T14:03:09.286Z,49.64
2017-03-26T14:04:09.304Z,50.12
2017-03-26T14:05:09.335Z,50.12
2017-03-26T14:06:09.470Z,49.64
2017-03-26T14:07:09.458Z,49.54
2017-03-26T14:08:09.468Z,50.78
2017-03-26T14:09:09.474Z,51.35
2017-03-26T14:10:09.522Z,51.54
2017-03-26T14:11:09.514Z,52.03
2017-03-26T14:12:09.595Z,51.35
2017-03-26T14:13:09.597Z,50.49
2017-03-26T14:14:09.640Z,50.59
2017-03-26T14:15:09.664Z,50.21
2017-03-26T14:16:09.724Z,49.73
2017-03-26T14:17:09.731Z,49.73
2017-03-26T14:18:09.799Z,49.83
2017-03-26T14:19:09.858Z,49.16
2017-03-26T14:20:09.866Z,49.07
2017-03-26T14:21:09.858Z,49.07
2017-03-26T14:22:09.931Z,49.26
2017-03-26T14:23:09.923Z,49.54
2017-03-26T14:24:09.974Z,49.54
2017-03-26T14:25:10.103Z,49.73
2017-03-26T14:26:10.026Z,49.64
2017-03-26T14:27:10.072Z,49.83
2017-03-26T14:28:10.102Z,49.73
2017-03-26T14:29:10.136Z,49.73
2017-03-26T14:30:10.163Z,49.54
2017-03-26T14:31:10.238Z,49.93
2017-03-26T14:32:10.242Z,49.83
2017-03-26T14:33:10.270Z,49.93
2017-03-26T14:34:10.296Z,50.12
2017-03-26T14:35:10.334Z,49.54
2017-03-26T14:36:10.392Z,49.73
2017-03-26T14:37:10.406Z,50.12
2017-03-26T14:38:10.473Z,50.49
2017-03-26T14:39:10.460Z,51.26
2017-03-26T14:40:10.531Z,51.45
2017-03-26T14:41:10.525Z,51.26
2017-03-26T14:42:10.578Z,51.17
2017-03-26T14:43:10.612Z,51.04
2017-03-26T14:44:10.639Z,50.95
2017-03-26T14:45:10.729Z,50.47
2017-03-26T14:46:10.759Z,50.67
2017-03-26T14:47:10.759Z,50.38
2017-03-26T14:48:10.800Z,50.67
2017-03-26T14:49:10.843Z,50.38
2017-03-26T14:50:10.839Z,50.76
2017-03-26T14:51:10.889Z,50.49
2017-03-26T14:52:10.925Z,50.76
2017-03-26T14:53:10.971Z,51.26
2017-03-26T14:54:10.975Z,50.47
2017-03-26T14:55:11.007Z,50.31
2017-03-26T14:56:11.030Z,50.18
2017-03-26T14:57:11.126Z,50.59
2017-03-26T14:58:11.107Z,50.67
2017-03-26T14:59:11.142Z,51.04
2017-03-26T15:00:11.159Z,50.76
2017-03-26T15:01:11.225Z,51.04
2017-03-26T15:02:11.227Z,51.23
2017-03-26T15:03:11.303Z,51.9
2017-03-26T15:04:11.300Z,52.48
2017-03-26T15:05:11.339Z,52.67
2017-03-26T15:06:11.383Z,52.67
2017-03-26T15:07:11.400Z,53.05
2017-03-26T15:08:11.439Z,52.28
2017-03-26T15:09:11.497Z,51.23
2017-03-26T15:10:11.495Z,51.71
2017-03-26T15:11:11.559Z,51.71
2017-03-26T15:12:11.562Z,51.33
2017-03-26T15:13:11.602Z,51.14
2017-03-26T15:14:11.631Z,51.33
2017-03-26T15:15:11.671Z,51.43
2017-03-26T15:16:11.680Z,51.9
2017-03-26T15:17:11.730Z,52.36
2017-03-26T15:18:11.751Z,52.86
2017-03-26T15:19:11.807Z,52.73
2017-03-26T15:20:11.836Z,52.73
2017-03-26T15:21:11.871Z,52.64
2017-03-26T15:22:11.886Z,53.5
2017-03-26T15:23:11.932Z,54.17
2017-03-26T15:24:11.975Z,54.17
2017-03-26T15:25:12.003Z,54.17
2017-03-26T15:26:12.031Z,54.26
2017-03-26T15:27:12.066Z,54.26
2017-03-26T15:28:12.136Z,54.26
2017-03-26T15:29:12.135Z,54.07
2017-03-26T15:30:12.194Z,54.36
2017-03-26T15:31:12.203Z,54.55
2017-03-26T15:32:12.238Z,54.26
2017-03-26T15:33:12.255Z,55.02
2017-03-26T15:34:12.327Z,55.21
2017-03-26T15:35:12.328Z,55.5
2017-03-26T15:36:12.391Z,55.6
2017-03-26T15:37:12.407Z,55.79
2017-03-26T15:38:12.489Z,55.12
2017-03-26T15:39:12.461Z,55.31
2017-03-26T15:40:12.500Z,56.36
2017-03-26T15:41:12.514Z,56.46
2017-03-26T15:42:12.578Z,56.55
2017-03-26T15:43:12.594Z,56.36
2017-03-26T15:44:12.651Z,56.17
2017-03-26T15:45:12.699Z,55.85
2017-03-26T15:46:12.721Z,55.57
2017-03-26T15:47:12.727Z,55.69
2017-03-26T15:48:12.766Z,55.28
2017-03-26T15:49:12.781Z,55.57
2017-03-26T15:50:12.824Z,55.09
2017-03-26T15:51:12.846Z,54.52
2017-03-26T15:52:12.890Z,54.45
2017-03-26T15:53:12.977Z,54.36
2017-03-26T15:54:12.959Z,54.8
2017-03-26T15:55:12.976Z,54.36
2017-03-26T15:56:13.016Z,54.36
2017-03-26T15:57:13.079Z,54.83
2017-03-26T15:58:13.116Z,54.93
2017-03-26T15:59:13.112Z,55.5
2017-03-26T16:00:13.151Z,54.93
2017-03-26T16:01:13.170Z,55.12
2017-03-26T16:02:13.256Z,55.6
2017-03-26T16:03:13.255Z,55.31
2017-03-26T16:04:13.307Z,55.6
2017-03-26T16:05:13.320Z,55.6
2017-03-26T16:06:13.348Z,55.79
2017-03-26T16:07:13.382Z,55.6
2017-03-26T16:08:13.409Z,55.6
2017-03-26T16:09:13.476Z,55.5
2017-03-26T16:10:13.466Z,55.88
2017-03-26T16:11:13.520Z,56.17
2017-03-26T16:12:13.550Z,56.17
2017-03-26T16:13:13.559Z,56.36
2017-03-26T16:14:13.597Z,55.88
2017-03-26T16:15:13.865Z,56.17
2017-03-26T16:16:13.665Z,56.33
2017-03-26T16:17:13.712Z,56.43
2017-03-26T16:18:13.768Z,56.43
2017-03-26T16:19:13.770Z,56.71
2017-03-26T16:20:13.814Z,56.9
2017-03-26T16:21:13.850Z,56.81
2017-03-26T16:22:14.093Z,57
2017-03-26T16:23:13.940Z,56.71
2017-03-26T16:24:13.943Z,56.62
2017-03-26T16:25:13.992Z,56.71
2017-03-26T16:26:13.995Z,56.62
2017-03-26T16:27:14.033Z,57.03
2017-03-26T16:28:14.062Z,56.62
2017-03-26T16:29:14.683Z,56.62
2017-03-26T16:30:14.125Z,56.9
2017-03-26T16:31:14.168Z,56.62
2017-03-26T16:32:14.240Z,56.71
2017-03-26T16:33:14.256Z,56.71
2017-03-26T16:34:14.309Z,56.62
2017-03-26T16:35:14.607Z,56.43
2017-03-26T16:36:14.337Z,56.43
2017-03-26T16:37:14.425Z,56.52
2017-03-26T16:38:14.396Z,56.52
2017-03-26T16:39:14.421Z,56.43
2017-03-26T16:40:14.484Z,56.24
2017-03-26T16:41:14.490Z,56.43
2017-03-26T16:42:14.524Z,56.43
2017-03-26T16:43:14.583Z,56.33
2017-03-26T16:44:14.633Z,56.33
2017-03-26T16:45:14.605Z,56.33
2017-03-26T16:46:14.660Z,56.43
2017-03-26T16:47:14.692Z,56.62
2017-03-26T16:48:14.725Z,56.81
2017-03-26T16:49:14.745Z,56.81
2017-03-26T16:50:14.830Z,57.28
2017-03-26T16:51:14.807Z,57.48
2017-03-26T16:52:14.850Z,57.16
2017-03-26T16:53:14.872Z,57.92
2017-03-26T16:54:14.938Z,57.82
2017-03-26T16:55:14.939Z,57.82
2017-03-26T16:56:15.174Z,57.92